sensor_id;sensor_type;location;lat;lon;timestamp;pressure;altitude;pressure_sealevel;temperature;humidity
11643;BME280;5877;50.930;6.918;2023-11-21T00:03:24;100345.84;;;10.76;100.00
11643;BME280;5877;50.930;6.918;2023-11-21T00:08:21;100259.66;;;10.18;100.00
11643;BME280;5877;50.930;6.918;2023-11-21T00:13:18;100275.03;;;10.39;100.00
11643;BME280;5877;50.930;6.918;2023-11-21T00:18:10;100374.66;;;11.00;99.44
11643;BME280;5877;50.930;6.918;2023-11-21T00:23:06;100152.78;;;9.58;98.72
11643;BME280;5877;50.930;6.918;2023-11-21T00:27:58;100041.94;;;8.71;98.64
11643;BME280;5877;50.930;6.918;2023-11-21T00:32:55;100137.28;;;9.32;99.28
11643;BME280;5877;50.930;6.918;2023-11-21T00:37:48;100271.31;;;10.03;100.00
11643;BME280;5877;50.930;6.918;2023-11-21T00:42:44;100262.91;;;9.95;100.00
11643;BME280;5877;50.930;6.918;2023-11-21T00:47:38;100407.31;;;10.86;100.00
11643;BME280;5877;50.930;6.918;2023-11-21T00:52:31;100437.31;;;10.97;100.00
11643;BME280;5877;50.930;6.918;2023-11-21T00:57:23;100216.06;;;9.80;100.00
11643;BME280;5877;50.930;6.918;2023-11-21T01:02:22;100178.34;;;9.38;100.00
11643;BME280;5877;50.930;6.918;2023-11-21T01:07:15;100460.06;;;10.85;100.00
11643;BME280;5877;50.930;6.918;2023-11-21T01:12:07;100418.78;;;10.30;100.00
11643;BME280;5877;50.930;6.918;2023-11-21T01:17:00;100021.50;;;7.41;100.00
11643;BME280;5877;50.930;6.918;2023-11-21T01:21:57;100472.63;;;10.33;100.00
11643;BME280;5877;50.930;6.918;2023-11-21T01:26:49;100435.00;;;10.21;100.00
11643;BME280;5877;50.930;6.918;2023-11-21T01:31:42;100487.88;;;10.67;100.00
11643;BME280;5877;50.930;6.918;2023-11-21T01:36:35;100317.63;;;9.60;100.00
11643;BME280;5877;50.930;6.918;2023-11-21T01:41:29;100431.25;;;10.35;100.00
11643;BME280;5877;50.930;6.918;2023-11-21T01:46:22;100323.63;;;9.67;100.00
11643;BME280;5877;50.930;6.918;2023-11-21T01:51:16;100423.66;;;10.27;100.00
11643;BME280;5877;50.930;6.918;2023-11-21T01:56:12;100318.25;;;9.55;100.00
11643;BME280;5877;50.930;6.918;2023-11-21T02:01:06;100509.78;;;10.80;100.00
11643;BME280;5877;50.930;6.918;2023-11-21T02:05:58;100505.88;;;10.64;100.00
11643;BME280;5877;50.930;6.918;2023-11-21T02:10:51;100332.31;;;9.29;100.00
11643;BME280;5877;50.930;6.918;2023-11-21T02:15:44;100455.84;;;9.71;100.00
11643;BME280;5877;50.930;6.918;2023-11-21T02:20:37;100494.50;;;9.82;100.00
11643;BME280;5877;50.930;6.918;2023-11-21T02:25:35;100538.44;;;10.31;100.00
11643;BME280;5877;50.930;6.918;2023-11-21T02:30:30;100541.91;;;10.50;100.00
11643;BME280;5877;50.930;6.918;2023-11-21T02:35:27;100540.81;;;10.64;100.00
11643;BME280;5877;50.930;6.918;2023-11-21T02:40:21;100546.38;;;10.74;100.00
11643;BME280;5877;50.930;6.918;2023-11-21T02:45:14;100543.97;;;10.98;100.00
11643;BME280;5877;50.930;6.918;2023-11-21T02:50:11;100539.50;;;10.98;100.00
11643;BME280;5877;50.930;6.918;2023-11-21T02:55:04;100541.44;;;11.10;100.00
11643;BME280;5877;50.930;6.918;2023-11-21T02:59:59;100543.19;;;11.16;100.00
11643;BME280;5877;50.930;6.918;2023-11-21T03:04:54;100525.16;;;11.01;100.00
11643;BME280;5877;50.930;6.918;2023-11-21T03:09:47;100441.34;;;10.56;100.00
11643;BME280;5877;50.930;6.918;2023-11-21T03:14:39;100516.75;;;10.92;100.00
11643;BME280;5877;50.930;6.918;2023-11-21T03:19:33;100512.63;;;10.78;99.81
11643;BME280;5877;50.930;6.918;2023-11-21T03:24:26;100503.19;;;10.70;99.46
11643;BME280;5877;50.930;6.918;2023-11-21T03:29:19;100531.06;;;10.71;99.39
11643;BME280;5877;50.930;6.918;2023-11-21T03:34:24;100495.53;;;10.44;98.90
11643;BME280;5877;50.930;6.918;2023-11-21T03:39:22;100572.53;;;10.88;100.00
11643;BME280;5877;50.930;6.918;2023-11-21T03:44:19;100553.88;;;10.71;100.00
11643;BME280;5877;50.930;6.918;2023-11-21T03:49:14;100499.28;;;10.30;99.27
11643;BME280;5877;50.930;6.918;2023-11-21T03:54:07;100604.72;;;10.77;99.23
11643;BME280;5877;50.930;6.918;2023-11-21T03:59:03;100586.44;;;10.63;99.18
11643;BME280;5877;50.930;6.918;2023-11-21T04:03:55;100599.72;;;10.68;100.00
11643;BME280;5877;50.930;6.918;2023-11-21T04:08:49;100622.75;;;10.66;100.00
11643;BME280;5877;50.930;6.918;2023-11-21T04:13:42;100625.94;;;10.75;100.00
11643;BME280;5877;50.930;6.918;2023-11-21T04:18:38;100626.91;;;10.81;100.00
11643;BME280;5877;50.930;6.918;2023-11-21T04:23:31;100583.84;;;10.57;99.54
11643;BME280;5877;50.930;6.918;2023-11-21T04:28:23;100413.28;;;9.37;100.00
11643;BME280;5877;50.930;6.918;2023-11-21T04:33:19;100534.06;;;10.12;99.75
11643;BME280;5877;50.930;6.918;2023-11-21T04:38:11;100449.47;;;9.54;98.62
11643;BME280;5877;50.930;6.918;2023-11-21T04:43:05;100556.91;;;10.43;99.17
11643;BME280;5877;50.930;6.918;2023-11-21T04:48:00;100580.84;;;10.53;99.46
11643;BME280;5877;50.930;6.918;2023-11-21T04:52:53;100609.03;;;10.64;100.00
11643;BME280;5877;50.930;6.918;2023-11-21T04:57:45;100565.47;;;10.32;99.09
11643;BME280;5877;50.930;6.918;2023-11-21T05:02:41;100590.97;;;10.50;99.24
11643;BME280;5877;50.930;6.918;2023-11-21T05:07:37;100611.78;;;10.45;100.00
11643;BME280;5877;50.930;6.918;2023-11-21T05:12:31;100607.63;;;10.37;100.00
11643;BME280;5877;50.930;6.918;2023-11-21T05:17:33;100654.97;;;10.49;100.00
11643;BME280;5877;50.930;6.918;2023-11-21T05:22:26;100612.91;;;10.30;100.00
11643;BME280;5877;50.930;6.918;2023-11-21T05:27:21;100421.84;;;9.06;100.00
11643;BME280;5877;50.930;6.918;2023-11-21T05:32:13;100529.25;;;9.64;100.00
11643;BME280;5877;50.930;6.918;2023-11-21T05:37:05;100677.94;;;10.53;100.00
11643;BME280;5877;50.930;6.918;2023-11-21T05:41:58;100679.88;;;10.39;100.00
11643;BME280;5877;50.930;6.918;2023-11-21T05:46:54;100684.56;;;10.62;100.00
11643;BME280;5877;50.930;6.918;2023-11-21T05:51:47;100576.88;;;10.06;100.00
11643;BME280;5877;50.930;6.918;2023-11-21T05:56:40;100662.44;;;10.45;100.00
11643;BME280;5877;50.930;6.918;2023-11-21T06:01:34;100696.75;;;10.50;100.00
11643;BME280;5877;50.930;6.918;2023-11-21T06:06:27;100719.25;;;10.71;100.00
11643;BME280;5877;50.930;6.918;2023-11-21T06:11:19;100701.75;;;10.58;100.00
11643;BME280;5877;50.930;6.918;2023-11-21T06:16:13;100655.31;;;10.14;100.00
11643;BME280;5877;50.930;6.918;2023-11-21T06:21:12;100737.78;;;10.83;100.00
11643;BME280;5877;50.930;6.918;2023-11-21T06:26:08;100704.97;;;10.60;100.00
11643;BME280;5877;50.930;6.918;2023-11-21T06:31:01;100646.22;;;10.23;99.81
11643;BME280;5877;50.930;6.918;2023-11-21T06:35:57;100560.91;;;9.63;98.43
11643;BME280;5877;50.930;6.918;2023-11-21T06:40:52;100755.78;;;10.79;98.64
11643;BME280;5877;50.930;6.918;2023-11-21T06:45:47;100673.34;;;9.91;100.00
11643;BME280;5877;50.930;6.918;2023-11-21T06:50:39;100708.38;;;10.09;99.85
11643;BME280;5877;50.930;6.918;2023-11-21T06:55:33;100759.31;;;10.53;99.84
11643;BME280;5877;50.930;6.918;2023-11-21T07:00:26;100450.91;;;8.65;99.00
11643;BME280;5877;50.930;6.918;2023-11-21T07:05:22;100785.72;;;10.65;100.00
11643;BME280;5877;50.930;6.918;2023-11-21T07:10:15;100796.75;;;10.80;99.09
11643;BME280;5877;50.930;6.918;2023-11-21T07:15:11;100788.09;;;10.73;98.82
11643;BME280;5877;50.930;6.918;2023-11-21T07:20:04;100767.53;;;10.70;97.46
11643;BME280;5877;50.930;6.918;2023-11-21T07:24:58;100803.44;;;11.21;93.61
11643;BME280;5877;50.930;6.918;2023-11-21T07:29:52;100825.31;;;11.46;91.30
11643;BME280;5877;50.930;6.918;2023-11-21T07:34:47;100842.84;;;11.59;90.66
11643;BME280;5877;50.930;6.918;2023-11-21T07:39:39;100755.47;;;11.00;90.10
11643;BME280;5877;50.930;6.918;2023-11-21T07:44:34;100850.13;;;11.57;89.82
11643;BME280;5877;50.930;6.918;2023-11-21T07:49:28;100795.88;;;11.37;88.70
11643;BME280;5877;50.930;6.918;2023-11-21T07:54:20;100762.47;;;11.13;87.44
11643;BME280;5877;50.930;6.918;2023-11-21T07:59:17;100800.06;;;11.45;86.67
11643;BME280;5877;50.930;6.918;2023-11-21T08:04:12;100802.66;;;11.52;85.88
11643;BME280;5877;50.930;6.918;2023-11-21T08:09:06;100851.06;;;12.00;84.99
11643;BME280;5877;50.930;6.918;2023-11-21T08:14:01;100798.81;;;11.79;84.27
11643;BME280;5877;50.930;6.918;2023-11-21T08:18:55;100860.34;;;12.28;83.11
11643;BME280;5877;50.930;6.918;2023-11-21T08:23:48;100854.06;;;12.29;82.27
11643;BME280;5877;50.930;6.918;2023-11-21T08:28:45;100632.06;;;10.94;81.83
11643;BME280;5877;50.930;6.918;2023-11-21T08:33:40;100660.00;;;10.50;81.80
11643;BME280;5877;50.930;6.918;2023-11-21T08:38:33;100791.53;;;11.81;81.51
11643;BME280;5877;50.930;6.918;2023-11-21T08:43:25;100852.63;;;12.08;81.27
11643;BME280;5877;50.930;6.918;2023-11-21T08:48:21;100678.03;;;11.10;80.74
11643;BME280;5877;50.930;6.918;2023-11-21T08:53:14;100901.25;;;12.49;81.22
11643;BME280;5877;50.930;6.918;2023-11-21T08:58:08;100920.97;;;12.64;80.60
11643;BME280;5877;50.930;6.918;2023-11-21T09:03:01;100945.63;;;12.70;81.00
11643;BME280;5877;50.930;6.918;2023-11-21T09:07:55;100886.75;;;12.40;81.24
11643;BME280;5877;50.930;6.918;2023-11-21T09:12:48;100871.34;;;12.43;80.15
11643;BME280;5877;50.930;6.918;2023-11-21T09:17:40;100607.47;;;10.88;78.55
11643;BME280;5877;50.930;6.918;2023-11-21T09:22:34;100919.38;;;13.00;77.49
11643;BME280;5877;50.930;6.918;2023-11-21T09:27:27;100882.34;;;12.77;77.73
11643;BME280;5877;50.930;6.918;2023-11-21T09:32:24;100862.78;;;12.48;77.80
11643;BME280;5877;50.930;6.918;2023-11-21T09:37:17;100977.22;;;13.31;77.42
11643;BME280;5877;50.930;6.918;2023-11-21T09:42:13;100829.28;;;12.37;77.02
11643;BME280;5877;50.930;6.918;2023-11-21T09:47:10;100931.00;;;12.92;77.11
11643;BME280;5877;50.930;6.918;2023-11-21T09:52:38;101003.78;;;13.30;77.57
11643;BME280;5877;50.930;6.918;2023-11-21T09:57:32;101005.28;;;13.01;78.17
11643;BME280;5877;50.930;6.918;2023-11-21T10:02:28;100790.97;;;11.73;78.11
11643;BME280;5877;50.930;6.918;2023-11-21T10:07:23;100890.94;;;12.47;77.92
11643;BME280;5877;50.930;6.918;2023-11-21T10:12:23;100960.34;;;12.96;77.29
11643;BME280;5877;50.930;6.918;2023-11-21T10:17:18;100842.09;;;12.51;76.16
11643;BME280;5877;50.930;6.918;2023-11-21T10:22:12;100937.16;;;13.23;74.24
11643;BME280;5877;50.930;6.918;2023-11-21T10:27:07;101011.47;;;13.68;74.25
11643;BME280;5877;50.930;6.918;2023-11-21T10:32:05;100938.03;;;13.17;73.82
11643;BME280;5877;50.930;6.918;2023-11-21T10:36:58;100681.25;;;11.61;73.69
11643;BME280;5877;50.930;6.918;2023-11-21T10:41:55;100687.50;;;11.60;73.70
11643;BME280;5877;50.930;6.918;2023-11-21T10:46:53;101031.59;;;13.81;74.38
11643;BME280;5877;50.930;6.918;2023-11-21T10:51:53;101013.25;;;13.86;73.67
11643;BME280;5877;50.930;6.918;2023-11-21T10:56:50;100985.88;;;13.98;72.01
11643;BME280;5877;50.930;6.918;2023-11-21T11:01:46;101004.31;;;14.17;71.68
11643;BME280;5877;50.930;6.918;2023-11-21T11:06:45;101032.25;;;14.36;71.78
11643;BME280;5877;50.930;6.918;2023-11-21T11:11:46;100985.00;;;14.05;70.71
11643;BME280;5877;50.930;6.918;2023-11-21T11:16:40;100993.94;;;14.04;70.43
11643;BME280;5877;50.930;6.918;2023-11-21T11:27:01;101042.50;;;13.84;72.89
11643;BME280;5877;50.930;6.918;2023-11-21T11:32:22;101041.34;;;13.80;73.65
11643;BME280;5877;50.930;6.918;2023-11-21T11:37:20;100961.44;;;13.43;73.01
11643;BME280;5877;50.930;6.918;2023-11-21T11:42:21;100942.56;;;13.28;72.74
11643;BME280;5877;50.930;6.918;2023-11-21T11:47:17;101002.38;;;13.64;72.76
11643;BME280;5877;50.930;6.918;2023-11-21T11:52:44;101045.78;;;13.98;72.29
11643;BME280;5877;50.930;6.918;2023-11-21T11:57:42;101060.97;;;13.84;72.87
11643;BME280;5877;50.930;6.918;2023-11-21T12:02:45;101009.84;;;13.67;71.76
11643;BME280;5877;50.930;6.918;2023-11-21T12:07:43;101053.00;;;14.21;70.42
11643;BME280;5877;50.930;6.918;2023-11-21T12:12:37;101064.63;;;14.02;70.72
11643;BME280;5877;50.930;6.918;2023-11-21T12:17:49;101025.53;;;13.44;72.14
11643;BME280;5877;50.930;6.918;2023-11-21T12:22:44;101073.44;;;13.77;72.65
11643;BME280;5877;50.930;6.918;2023-11-21T12:27:44;101052.63;;;13.69;72.34
11643;BME280;5877;50.930;6.918;2023-11-21T12:32:39;101078.03;;;14.00;72.08
11643;BME280;5877;50.930;6.918;2023-11-21T12:37:37;101019.97;;;13.70;71.72
11643;BME280;5877;50.930;6.918;2023-11-21T12:42:34;100951.13;;;13.23;71.67
11643;BME280;5877;50.930;6.918;2023-11-21T12:47:34;101069.69;;;14.03;71.21
11643;BME280;5877;50.930;6.918;2023-11-21T12:52:28;101088.88;;;14.10;71.14
11643;BME280;5877;50.930;6.918;2023-11-21T12:57:25;100964.16;;;13.00;71.91
11643;BME280;5877;50.930;6.918;2023-11-21T13:02:21;101074.69;;;13.13;74.60
11643;BME280;5877;50.930;6.918;2023-11-21T13:07:13;101098.00;;;13.16;75.76
11643;BME280;5877;50.930;6.918;2023-11-21T13:12:07;101037.41;;;12.91;75.74
11643;BME280;5877;50.930;6.918;2023-11-21T13:17:02;101082.94;;;13.23;74.62
11643;BME280;5877;50.930;6.918;2023-11-21T13:22:00;100847.50;;;11.88;72.97
11643;BME280;5877;50.930;6.918;2023-11-21T13:26:56;101069.25;;;13.33;72.20
11643;BME280;5877;50.930;6.918;2023-11-21T13:31:50;101091.97;;;13.52;71.58
11643;BME280;5877;50.930;6.918;2023-11-21T13:36:43;101055.22;;;13.39;71.53
11643;BME280;5877;50.930;6.918;2023-11-21T13:41:38;101126.28;;;13.71;71.45
11643;BME280;5877;50.930;6.918;2023-11-21T13:46:31;100751.88;;;11.26;71.32
11643;BME280;5877;50.930;6.918;2023-11-21T13:51:34;101149.06;;;13.65;71.97
11643;BME280;5877;50.930;6.918;2023-11-21T13:56:33;101131.44;;;13.41;71.80
11643;BME280;5877;50.930;6.918;2023-11-21T14:01:26;101128.59;;;13.42;72.51
11643;BME280;5877;50.930;6.918;2023-11-21T14:06:25;101062.19;;;12.84;72.20
11643;BME280;5877;50.930;6.918;2023-11-21T14:11:24;101162.09;;;13.60;72.37
11643;BME280;5877;50.930;6.918;2023-11-21T14:16:28;101147.00;;;13.49;72.27
11643;BME280;5877;50.930;6.918;2023-11-21T14:21:23;101063.41;;;13.06;72.26
11643;BME280;5877;50.930;6.918;2023-11-21T14:26:16;101137.72;;;13.64;72.06
11643;BME280;5877;50.930;6.918;2023-11-21T14:31:09;100941.97;;;12.21;71.79
11643;BME280;5877;50.930;6.918;2023-11-21T14:36:07;101017.91;;;12.74;72.35
11643;BME280;5877;50.930;6.918;2023-11-21T14:41:02;101032.63;;;12.82;72.40
11643;BME280;5877;50.930;6.918;2023-11-21T14:45:55;101180.59;;;13.35;73.83
11643;BME280;5877;50.930;6.918;2023-11-21T14:50:56;101156.75;;;12.98;75.67
11643;BME280;5877;50.930;6.918;2023-11-21T14:55:57;101186.38;;;13.19;76.29
11643;BME280;5877;50.930;6.918;2023-11-21T15:00:58;101150.38;;;13.06;75.93
11643;BME280;5877;50.930;6.918;2023-11-21T15:05:53;101075.34;;;12.59;75.59
11643;BME280;5877;50.930;6.918;2023-11-21T15:10:46;101201.31;;;13.31;76.02
11643;BME280;5877;50.930;6.918;2023-11-21T15:15:42;101157.03;;;12.84;76.44
11643;BME280;5877;50.930;6.918;2023-11-21T15:20:34;101073.03;;;12.44;77.98
11643;BME280;5877;50.930;6.918;2023-11-21T15:25:27;101217.88;;;13.07;80.73
11643;BME280;5877;50.930;6.918;2023-11-21T15:30:20;101140.72;;;12.30;83.33
11643;BME280;5877;50.930;6.918;2023-11-21T15:35:16;101166.63;;;12.33;85.80
11643;BME280;5877;50.930;6.918;2023-11-21T15:40:09;101255.22;;;12.66;87.59
11643;BME280;5877;50.930;6.918;2023-11-21T15:45:05;101238.47;;;12.47;90.11
11643;BME280;5877;50.930;6.918;2023-11-21T15:50:00;101241.00;;;12.16;93.58
11643;BME280;5877;50.930;6.918;2023-11-21T15:54:54;101241.22;;;12.01;94.07
11643;BME280;5877;50.930;6.918;2023-11-21T15:59:46;101178.94;;;11.68;94.04
11643;BME280;5877;50.930;6.918;2023-11-21T16:04:39;101041.75;;;10.67;94.12
11643;BME280;5877;50.930;6.918;2023-11-21T16:09:33;101256.22;;;12.00;94.81
11643;BME280;5877;50.930;6.918;2023-11-21T16:14:25;101184.00;;;11.57;93.07
11643;BME280;5877;50.930;6.918;2023-11-21T16:19:21;101216.38;;;11.51;92.40
11643;BME280;5877;50.930;6.918;2023-11-21T16:24:15;101183.00;;;11.25;91.37
11643;BME280;5877;50.930;6.918;2023-11-21T16:29:07;101274.63;;;11.81;90.09
11643;BME280;5877;50.930;6.918;2023-11-21T16:34:00;101233.75;;;11.52;89.50
11643;BME280;5877;50.930;6.918;2023-11-21T16:39:00;101302.97;;;11.92;89.00
11643;BME280;5877;50.930;6.918;2023-11-21T16:43:55;101290.19;;;11.69;89.23
11643;BME280;5877;50.930;6.918;2023-11-21T16:48:48;101223.63;;;11.22;88.88
11643;BME280;5877;50.930;6.918;2023-11-21T16:53:42;101256.59;;;11.31;89.60
11643;BME280;5877;50.930;6.918;2023-11-21T16:58:34;101340.78;;;11.78;89.32
11643;BME280;5877;50.930;6.918;2023-11-21T17:03:29;101256.53;;;11.05;89.75
11643;BME280;5877;50.930;6.918;2023-11-21T17:08:25;101308.38;;;11.44;90.44
11643;BME280;5877;50.930;6.918;2023-11-21T17:13:19;101391.72;;;11.70;89.94
11643;BME280;5877;50.930;6.918;2023-11-21T17:18:11;101401.44;;;11.69;89.43
11643;BME280;5877;50.930;6.918;2023-11-21T17:23:10;101397.38;;;11.60;88.72
11643;BME280;5877;50.930;6.918;2023-11-21T17:28:05;101292.63;;;10.83;86.65
11643;BME280;5877;50.930;6.918;2023-11-21T17:32:59;101349.59;;;10.83;87.49
11643;BME280;5877;50.930;6.918;2023-11-21T17:37:53;101337.88;;;10.79;88.94
11643;BME280;5877;50.930;6.918;2023-11-21T17:42:46;101392.47;;;10.55;92.93
11643;BME280;5877;50.930;6.918;2023-11-21T17:47:40;101316.28;;;9.86;95.05
11643;BME280;5877;50.930;6.918;2023-11-21T17:52:33;101443.63;;;10.66;93.02
11643;BME280;5877;50.930;6.918;2023-11-21T17:57:27;101301.53;;;9.85;91.89
11643;BME280;5877;50.930;6.918;2023-11-21T18:02:20;101497.19;;;10.71;91.82
11643;BME280;5877;50.930;6.918;2023-11-21T18:07:14;101441.84;;;10.38;91.47
11643;BME280;5877;50.930;6.918;2023-11-21T18:12:13;101415.72;;;10.09;90.86
11643;BME280;5877;50.930;6.918;2023-11-21T18:17:07;101462.28;;;10.22;90.78
11643;BME280;5877;50.930;6.918;2023-11-21T18:22:02;101473.69;;;10.35;89.57
11643;BME280;5877;50.930;6.918;2023-11-21T18:26:54;101525.63;;;10.40;89.17
11643;BME280;5877;50.930;6.918;2023-11-21T18:31:51;101439.88;;;9.83;87.70
11643;BME280;5877;50.930;6.918;2023-11-21T18:36:44;101498.50;;;10.33;84.54
11643;BME280;5877;50.930;6.918;2023-11-21T18:41:37;101547.97;;;10.57;82.52
11643;BME280;5877;50.930;6.918;2023-11-21T18:46:40;101569.91;;;10.50;81.87
11643;BME280;5877;50.930;6.918;2023-11-21T18:51:33;101540.75;;;10.02;82.06
11643;BME280;5877;50.930;6.918;2023-11-21T18:56:27;101567.69;;;9.96;80.39
11643;BME280;5877;50.930;6.918;2023-11-21T19:01:29;101574.69;;;9.74;77.68
11643;BME280;5877;50.930;6.918;2023-11-21T19:06:24;101499.25;;;9.25;75.23
11643;BME280;5877;50.930;6.918;2023-11-21T19:11:17;101568.47;;;9.46;75.09
11643;BME280;5877;50.930;6.918;2023-11-21T19:16:13;101532.63;;;8.94;74.29
11643;BME280;5877;50.930;6.918;2023-11-21T19:21:13;101629.16;;;9.34;73.60
11643;BME280;5877;50.930;6.918;2023-11-21T19:26:09;101658.25;;;9.02;75.33
11643;BME280;5877;50.930;6.918;2023-11-21T19:31:03;101511.06;;;8.00;75.95
11643;BME280;5877;50.930;6.918;2023-11-21T19:36:23;101624.25;;;8.48;76.32
11643;BME280;5877;50.930;6.918;2023-11-21T19:41:18;101472.72;;;7.39;76.85
11643;BME280;5877;50.930;6.918;2023-11-21T19:46:12;101680.53;;;8.75;77.06
11643;BME280;5877;50.930;6.918;2023-11-21T19:51:07;101583.13;;;8.03;77.50
11643;BME280;5877;50.930;6.918;2023-11-21T19:56:12;101567.50;;;7.87;77.84
11643;BME280;5877;50.930;6.918;2023-11-21T20:01:07;101470.03;;;7.08;78.73
11643;BME280;5877;50.930;6.918;2023-11-21T20:06:05;101602.53;;;8.08;78.66
11643;BME280;5877;50.930;6.918;2023-11-21T20:11:06;101699.78;;;8.82;76.57
11643;BME280;5877;50.930;6.918;2023-11-21T20:16:01;101589.06;;;7.89;76.79
11643;BME280;5877;50.930;6.918;2023-11-21T20:20:56;101736.28;;;9.06;74.82
11643;BME280;5877;50.930;6.918;2023-11-21T20:25:55;101648.06;;;8.61;74.29
11643;BME280;5877;50.930;6.918;2023-11-21T20:30:51;101719.75;;;9.06;73.77
11643;BME280;5877;50.930;6.918;2023-11-21T20:35:47;101756.44;;;9.06;73.83
11643;BME280;5877;50.930;6.918;2023-11-21T20:40:40;101669.69;;;8.55;72.50
11643;BME280;5877;50.930;6.918;2023-11-21T20:45:33;101693.03;;;8.65;72.25
11643;BME280;5877;50.930;6.918;2023-11-21T20:50:31;101546.16;;;7.44;71.89
11643;BME280;5877;50.930;6.918;2023-11-21T20:55:23;101795.44;;;8.93;71.43
11643;BME280;5877;50.930;6.918;2023-11-21T21:00:22;101706.53;;;8.45;71.20
11643;BME280;5877;50.930;6.918;2023-11-21T21:05:20;101768.59;;;8.99;70.76
11643;BME280;5877;50.930;6.918;2023-11-21T21:10:17;101793.69;;;8.85;71.14
11643;BME280;5877;50.930;6.918;2023-11-21T21:15:12;101776.19;;;8.86;70.99
11643;BME280;5877;50.930;6.918;2023-11-21T21:20:05;101741.84;;;8.50;70.46
11643;BME280;5877;50.930;6.918;2023-11-21T21:24:58;101813.75;;;9.01;70.92
11643;BME280;5877;50.930;6.918;2023-11-21T21:29:55;101569.31;;;7.47;70.99
11643;BME280;5877;50.930;6.918;2023-11-21T21:34:51;101368.94;;;6.06;70.65
11643;BME280;5877;50.930;6.918;2023-11-21T21:39:58;101559.09;;;7.13;70.53
11643;BME280;5877;50.930;6.918;2023-11-21T21:44:53;101399.56;;;6.28;70.57
11643;BME280;5877;50.930;6.918;2023-11-21T21:49:54;101832.97;;;9.16;69.74
11643;BME280;5877;50.930;6.918;2023-11-21T21:54:51;101711.47;;;8.32;69.18
11643;BME280;5877;50.930;6.918;2023-11-21T21:59:47;101720.47;;;8.38;69.41
11643;BME280;5877;50.930;6.918;2023-11-21T22:04:53;101568.25;;;6.84;70.54
11643;BME280;5877;50.930;6.918;2023-11-21T22:09:48;101860.22;;;8.27;71.75
11643;BME280;5877;50.930;6.918;2023-11-21T22:14:59;101592.34;;;6.38;72.44
11643;BME280;5877;50.930;6.918;2023-11-21T22:20:17;101845.72;;;8.08;71.43
11643;BME280;5877;50.930;6.918;2023-11-21T22:25:32;101896.81;;;8.68;70.34
11643;BME280;5877;50.930;6.918;2023-11-21T22:30:31;101860.88;;;8.45;69.35
11643;BME280;5877;50.930;6.918;2023-11-21T22:35:39;101765.50;;;7.93;68.57
11643;BME280;5877;50.930;6.918;2023-11-21T22:40:37;101768.91;;;8.01;68.20
11643;BME280;5877;50.930;6.918;2023-11-21T22:45:31;101813.97;;;8.28;68.94
11643;BME280;5877;50.930;6.918;2023-11-21T22:50:25;101768.25;;;8.07;70.20
11643;BME280;5877;50.930;6.918;2023-11-21T22:55:21;101783.28;;;8.13;70.22
11643;BME280;5877;50.930;6.918;2023-11-21T23:00:17;101873.66;;;8.40;71.17
11643;BME280;5877;50.930;6.918;2023-11-21T23:05:19;101931.94;;;8.90;70.40
11643;BME280;5877;50.930;6.918;2023-11-21T23:10:18;101830.97;;;8.32;70.31
11643;BME280;5877;50.930;6.918;2023-11-21T23:16:03;101934.91;;;8.87;71.28
11643;BME280;5877;50.930;6.918;2023-11-21T23:20:58;101673.97;;;7.05;71.77
11643;BME280;5877;50.930;6.918;2023-11-21T23:26:16;101938.22;;;8.56;73.20
11643;BME280;5877;50.930;6.918;2023-11-21T23:31:11;101943.81;;;8.37;74.61
11643;BME280;5877;50.930;6.918;2023-11-21T23:36:08;101816.97;;;7.52;76.25
11643;BME280;5877;50.930;6.918;2023-11-21T23:41:46;101936.25;;;8.26;76.75
11643;BME280;5877;50.930;6.918;2023-11-21T23:46:50;101870.38;;;7.90;77.05
11643;BME280;5877;50.930;6.918;2023-11-21T23:51:49;101823.03;;;7.52;76.98
11643;BME280;5877;50.930;6.918;2023-11-21T23:56:48;101963.09;;;8.36;76.94
